createdAt,value
2018-10-03T00:01:00.583Z,13.39
2018-10-03T00:03:29.997Z,13.41
2018-10-03T00:05:58.674Z,13.42
2018-10-03T00:08:27.331Z,13.43
2018-10-03T00:10:56.567Z,13.43
2018-10-03T00:13:25.189Z,13.44
2018-10-03T00:15:53.830Z,13.44
2018-10-03T00:18:22.514Z,13.44
2018-10-03T00:20:51.324Z,13.43
2018-10-03T00:23:19.822Z,13.40
2018-10-03T00:25:48.290Z,13.42
2018-10-03T00:28:17.070Z,13.43
2018-10-03T00:30:45.681Z,13.44
2018-10-03T00:33:14.584Z,13.41
2018-10-03T00:35:44.056Z,13.38
2018-10-03T00:38:12.699Z,13.36
2018-10-03T00:40:41.430Z,13.35
2018-10-03T00:43:09.997Z,13.36
2018-10-03T00:45:38.480Z,13.38
2018-10-03T00:48:08.078Z,13.41
2018-10-03T00:50:36.622Z,13.42
2018-10-03T00:53:05.315Z,13.45
2018-10-03T00:55:33.748Z,13.44
2018-10-03T00:58:02.497Z,13.46
2018-10-03T01:00:30.971Z,13.46
2018-10-03T01:02:59.685Z,13.47
2018-10-03T01:05:28.222Z,13.46
2018-10-03T01:07:56.677Z,13.47
2018-10-03T01:10:25.314Z,13.50
2018-10-03T01:12:53.804Z,13.52
2018-10-03T01:15:22.527Z,13.53
2018-10-03T01:17:51.196Z,13.52
2018-10-03T01:20:20.016Z,13.48
2018-10-03T01:22:48.637Z,13.48
2018-10-03T01:25:17.352Z,13.49
2018-10-03T01:27:46.123Z,13.50
2018-10-03T01:30:14.642Z,13.50
2018-10-03T01:32:43.838Z,13.48
2018-10-03T01:35:12.813Z,13.45
2018-10-03T01:37:41.277Z,13.42
2018-10-03T01:40:09.999Z,13.37
2018-10-03T01:42:39.293Z,13.34
2018-10-03T01:45:07.778Z,13.32
2018-10-03T01:47:36.362Z,13.27
2018-10-03T01:50:05.540Z,13.23
2018-10-03T01:52:34.720Z,13.22
2018-10-03T01:55:03.419Z,13.20
2018-10-03T01:57:35.145Z,13.20
2018-10-03T02:00:03.904Z,13.16
2018-10-03T02:02:32.952Z,13.14
2018-10-03T02:05:01.467Z,13.15
2018-10-03T02:07:30.000Z,13.15
2018-10-03T02:09:58.542Z,13.16
2018-10-03T02:12:27.107Z,13.21
2018-10-03T02:14:56.561Z,13.24
2018-10-03T02:17:25.528Z,13.26
2018-10-03T02:19:54.124Z,13.26
2018-10-03T02:22:22.619Z,13.28
2018-10-03T02:24:51.696Z,13.26
2018-10-03T02:27:20.300Z,13.26
2018-10-03T02:29:54.076Z,13.27
2018-10-03T02:32:22.655Z,13.28
2018-10-03T02:34:51.101Z,13.30
2018-10-03T02:37:20.428Z,13.30
2018-10-03T02:39:48.914Z,13.30
2018-10-03T02:42:17.813Z,13.27
2018-10-03T02:44:46.344Z,13.27
2018-10-03T02:47:15.593Z,13.25
2018-10-03T02:49:44.332Z,13.26
2018-10-03T02:52:12.940Z,13.28
2018-10-03T02:54:41.643Z,13.28
2018-10-03T02:57:10.146Z,13.29
2018-10-03T02:59:38.760Z,13.28
2018-10-03T03:02:07.861Z,13.28
2018-10-03T03:04:36.536Z,13.25
2018-10-03T03:07:05.436Z,13.21
2018-10-03T03:09:34.038Z,13.17
2018-10-03T03:12:02.558Z,13.14
2018-10-03T03:14:34.165Z,13.09
2018-10-03T03:17:02.817Z,13.06
2018-10-03T03:19:31.270Z,13.03
2018-10-03T03:22:00.318Z,12.99
2018-10-03T03:24:28.940Z,12.95
2018-10-03T03:26:58.357Z,12.93
2018-10-03T03:29:27.556Z,12.90
2018-10-03T03:31:56.177Z,12.85
2018-10-03T03:34:24.845Z,12.83
2018-10-03T03:36:53.317Z,12.79
2018-10-03T03:39:21.907Z,12.79
2018-10-03T03:41:50.465Z,12.75
2018-10-03T03:44:19.107Z,12.73
2018-10-03T03:46:47.644Z,12.71
2018-10-03T03:49:17.293Z,12.69
2018-10-03T03:51:45.940Z,12.65
2018-10-03T03:54:14.379Z,12.65
2018-10-03T03:56:43.718Z,12.63
2018-10-03T03:59:12.254Z,12.60
2018-10-03T04:01:41.147Z,12.57
2018-10-03T04:04:09.890Z,12.53
2018-10-03T04:06:38.459Z,12.50
2018-10-03T04:09:07.486Z,12.46
2018-10-03T04:11:36.007Z,12.45
2018-10-03T04:14:04.510Z,12.38
2018-10-03T04:16:33.189Z,12.40
2018-10-03T04:19:01.803Z,12.35
2018-10-03T04:21:34.637Z,12.31
2018-10-03T04:24:03.085Z,12.27
2018-10-03T04:26:31.908Z,12.25
2018-10-03T04:29:00.583Z,12.24
2018-10-03T04:31:29.069Z,12.22
2018-10-03T04:33:58.269Z,12.20
2018-10-03T04:36:27.112Z,12.19
2018-10-03T04:38:56.227Z,12.16
2018-10-03T04:41:27.292Z,12.12
2018-10-03T04:43:56.468Z,12.08
2018-10-03T04:46:25.173Z,12.06
2018-10-03T04:49:00.568Z,12.02
2018-10-03T04:51:29.990Z,12.01
2018-10-03T04:53:58.502Z,11.98
2018-10-03T04:56:27.155Z,11.96
2018-10-03T04:58:56.227Z,11.90
2018-10-03T05:01:24.818Z,11.88
2018-10-03T05:03:53.458Z,11.88
2018-10-03T05:06:21.967Z,11.86
2018-10-03T05:08:50.769Z,11.83
2018-10-03T05:11:19.235Z,11.82
2018-10-03T05:13:48.173Z,11.81
2018-10-03T05:16:16.773Z,11.77
2018-10-03T05:18:46.130Z,11.78
2018-10-03T05:21:14.824Z,11.76
2018-10-03T05:23:43.467Z,11.73
2018-10-03T05:26:12.192Z,11.75
2018-10-03T05:28:40.943Z,11.73
2018-10-03T05:31:10.236Z,11.72
2018-10-03T05:33:38.876Z,11.70
2018-10-03T05:36:07.846Z,11.69
2018-10-03T05:38:36.816Z,11.68
2018-10-03T05:41:05.266Z,11.66
2018-10-03T05:43:33.996Z,11.66
2018-10-03T05:46:02.502Z,11.65
2018-10-03T05:48:31.118Z,11.62
2018-10-03T05:50:59.685Z,11.62
2018-10-03T05:53:28.313Z,11.64
2018-10-03T05:55:57.250Z,11.65
2018-10-03T05:58:25.722Z,11.64
2018-10-03T06:00:55.016Z,11.63
2018-10-03T06:03:23.677Z,11.62
2018-10-03T06:05:52.120Z,11.62
2018-10-03T06:08:20.758Z,11.61
2018-10-03T06:10:52.560Z,11.62
2018-10-03T06:13:21.184Z,11.57
2018-10-03T06:15:49.800Z,11.61
2018-10-03T06:18:19.286Z,11.61
2018-10-03T06:20:47.963Z,11.62
2018-10-03T06:23:16.443Z,11.62
2018-10-03T06:25:45.385Z,11.63
2018-10-03T06:28:14.127Z,11.65
2018-10-03T06:30:42.781Z,11.65
2018-10-03T06:33:11.425Z,11.68
2018-10-03T06:35:40.088Z,11.70
2018-10-03T06:38:08.666Z,11.72
2018-10-03T06:40:37.177Z,11.72
2018-10-03T06:43:06.627Z,11.72
2018-10-03T06:45:35.309Z,11.74
2018-10-03T06:48:03.895Z,11.77
2018-10-03T06:50:32.413Z,11.76
2018-10-03T06:53:01.547Z,11.77
2018-10-03T06:55:30.206Z,11.78
2018-10-03T06:57:58.708Z,11.77
2018-10-03T07:00:27.625Z,11.78
2018-10-03T07:02:56.232Z,11.79
2018-10-03T07:05:24.899Z,11.78
2018-10-03T07:07:54.340Z,11.84
2018-10-03T07:10:23.579Z,11.89
2018-10-03T07:12:52.545Z,12.05
2018-10-03T07:15:21.593Z,12.16
2018-10-03T07:17:50.613Z,12.20
2018-10-03T07:20:19.484Z,12.27
2018-10-03T07:22:48.710Z,12.32
2018-10-03T07:25:17.419Z,12.35
2018-10-03T07:27:45.962Z,12.38
2018-10-03T07:30:14.606Z,12.42
2018-10-03T07:32:43.530Z,12.49
2018-10-03T07:35:12.141Z,12.57
2018-10-03T07:37:40.909Z,12.59
2018-10-03T07:40:09.625Z,12.55
2018-10-03T07:42:39.360Z,12.52
2018-10-03T07:45:08.011Z,12.50
2018-10-03T07:47:36.490Z,12.50
2018-10-03T07:50:05.366Z,12.50
2018-10-03T07:52:34.315Z,12.51
2018-10-03T07:55:03.023Z,12.56
2018-10-03T07:57:31.766Z,12.61
2018-10-03T08:00:00.878Z,12.67
2018-10-03T08:02:29.882Z,12.73
2018-10-03T08:04:58.693Z,12.80
2018-10-03T08:07:27.560Z,12.86
2018-10-03T08:09:56.169Z,12.95
2018-10-03T08:12:24.629Z,13.06
2018-10-03T08:14:53.211Z,13.15
2018-10-03T08:17:21.850Z,13.28
2018-10-03T08:19:50.689Z,13.41
2018-10-03T08:22:19.391Z,13.46
2018-10-03T08:24:48.240Z,13.49
2018-10-03T08:27:17.429Z,13.55
2018-10-03T08:29:46.051Z,13.64
2018-10-03T08:32:15.207Z,13.69
2018-10-03T08:34:44.359Z,13.71
2018-10-03T08:37:12.877Z,13.75
2018-10-03T08:39:41.353Z,13.81
2018-10-03T08:42:10.587Z,13.88
2018-10-03T08:44:39.417Z,13.94
2018-10-03T08:47:08.169Z,14.01
2018-10-03T08:49:36.812Z,14.08
2018-10-03T08:52:05.395Z,14.12
2018-10-03T08:54:34.116Z,14.15
2018-10-03T08:57:02.774Z,14.21
2018-10-03T08:59:31.747Z,14.24
2018-10-03T09:02:00.530Z,14.27
2018-10-03T09:04:29.288Z,14.32
2018-10-03T09:06:57.777Z,14.36
2018-10-03T09:09:26.282Z,14.42
2018-10-03T09:11:54.857Z,14.46
2018-10-03T09:14:23.497Z,14.53
2018-10-03T09:16:52.053Z,14.61
2018-10-03T09:19:20.640Z,14.69
2018-10-03T09:21:49.371Z,14.76
2018-10-03T09:24:18.548Z,14.85
2018-10-03T09:26:47.142Z,14.93
2018-10-03T09:29:16.406Z,15.04
2018-10-03T09:31:45.320Z,15.16
2018-10-03T09:34:13.989Z,15.32
2018-10-03T09:36:42.578Z,15.40
2018-10-03T09:39:12.243Z,15.33
2018-10-03T09:41:41.282Z,15.34
2018-10-03T09:44:10.670Z,15.40
2018-10-03T09:46:39.460Z,15.38
2018-10-03T09:49:08.057Z,15.43
2018-10-03T09:51:36.643Z,15.51
2018-10-03T09:54:05.431Z,15.55
2018-10-03T09:56:33.968Z,15.64
2018-10-03T09:59:02.595Z,15.79
2018-10-03T10:01:32.528Z,15.85
2018-10-03T10:04:02.456Z,15.91
2018-10-03T10:06:32.224Z,15.96
2018-10-03T10:09:01.053Z,16.12
2018-10-03T10:11:29.695Z,16.28
2018-10-03T10:13:58.391Z,16.42
2018-10-03T10:16:27.406Z,16.43
2018-10-03T10:18:55.903Z,16.30
2018-10-03T10:21:24.758Z,16.09
2018-10-03T10:23:53.725Z,15.97
2018-10-03T10:26:22.206Z,16.17
2018-10-03T10:28:50.875Z,16.22
2018-10-03T10:31:19.526Z,16.21
2018-10-03T10:33:48.327Z,16.31
2018-10-03T10:36:16.879Z,16.35
2018-10-03T10:38:46.348Z,16.28
2018-10-03T10:41:15.230Z,16.28
2018-10-03T10:43:43.786Z,16.52
2018-10-03T10:46:12.512Z,16.92
2018-10-03T10:48:47.790Z,17.21
2018-10-03T10:51:16.469Z,17.25
2018-10-03T10:53:45.452Z,17.20
2018-10-03T10:56:14.020Z,17.14
2018-10-03T10:58:42.733Z,17.13
2018-10-03T11:01:11.445Z,17.07
2018-10-03T11:03:40.159Z,16.93
2018-10-03T11:06:09.501Z,16.68
2018-10-03T11:08:40.065Z,16.52
2018-10-03T11:11:15.664Z,16.47
2018-10-03T11:13:44.290Z,16.32
2018-10-03T11:16:12.755Z,16.47
2018-10-03T11:18:41.389Z,16.93
2018-10-03T11:21:10.011Z,17.26
2018-10-03T11:23:38.871Z,17.24
2018-10-03T11:26:07.802Z,17.09
2018-10-03T11:28:36.437Z,17.01
2018-10-03T11:31:05.009Z,16.99
2018-10-03T11:33:33.617Z,17.02
2018-10-03T11:36:03.657Z,17.18
2018-10-03T11:38:32.226Z,17.62
2018-10-03T11:41:00.864Z,17.88
2018-10-03T11:43:29.690Z,17.91
2018-10-03T11:45:58.542Z,17.88
2018-10-03T11:48:27.222Z,18.01
2018-10-03T11:50:56.618Z,18.23
2018-10-03T11:53:25.589Z,18.65
2018-10-03T11:55:54.352Z,19.07
2018-10-03T11:58:23.133Z,18.91
2018-10-03T12:00:51.805Z,18.63
2018-10-03T12:03:20.368Z,18.32
2018-10-03T12:05:49.715Z,17.99
2018-10-03T12:08:18.220Z,17.86
2018-10-03T12:10:46.763Z,17.82
2018-10-03T12:13:15.550Z,17.96
2018-10-03T12:15:44.169Z,18.06
2018-10-03T12:18:13.389Z,18.39
2018-10-03T12:20:42.065Z,18.59
2018-10-03T12:23:10.931Z,18.83
2018-10-03T12:25:40.272Z,19.14
2018-10-03T12:28:09.109Z,18.80
2018-10-03T12:30:37.611Z,18.27
2018-10-03T12:33:06.213Z,17.89
2018-10-03T12:35:35.668Z,17.66
2018-10-03T12:38:04.479Z,17.57
2018-10-03T12:40:33.650Z,17.54
2018-10-03T12:43:02.405Z,17.74
2018-10-03T12:45:31.141Z,17.72
2018-10-03T12:48:00.496Z,17.69
2018-10-03T12:50:29.115Z,17.58
2018-10-03T12:52:57.654Z,17.57
2018-10-03T12:55:26.252Z,17.51
2018-10-03T12:57:54.890Z,17.41
2018-10-03T13:00:27.844Z,17.86
2018-10-03T13:02:56.650Z,18.47
2018-10-03T13:05:25.180Z,18.77
2018-10-03T13:07:54.042Z,18.85
2018-10-03T13:10:22.679Z,19.21
2018-10-03T13:12:51.209Z,19.12
2018-10-03T13:15:19.813Z,19.11
2018-10-03T13:17:49.502Z,19.35
2018-10-03T13:20:18.021Z,19.19
2018-10-03T13:22:46.623Z,18.73
2018-10-03T13:25:15.907Z,18.39
2018-10-03T13:27:44.408Z,18.22
2018-10-03T13:30:13.590Z,18.05
2018-10-03T13:32:42.393Z,17.87
2018-10-03T13:35:11.384Z,17.74
2018-10-03T13:37:40.277Z,17.54
2018-10-03T13:40:08.984Z,17.51
2018-10-03T13:42:37.595Z,17.44
2018-10-03T13:45:06.962Z,17.37
2018-10-03T13:47:35.586Z,17.28
2018-10-03T13:50:04.550Z,17.25
2018-10-03T13:52:33.205Z,17.36
2018-10-03T13:55:01.835Z,17.41
2018-10-03T13:57:30.260Z,17.33
2018-10-03T13:59:59.258Z,17.36
2018-10-03T14:02:28.577Z,17.47
2018-10-03T14:04:57.874Z,17.53
2018-10-03T14:07:27.312Z,17.45
2018-10-03T14:09:55.917Z,17.28
2018-10-03T14:12:24.809Z,17.20
2018-10-03T14:14:53.508Z,17.37
2018-10-03T14:17:22.284Z,17.50
2018-10-03T14:19:50.847Z,17.59
2018-10-03T14:22:19.521Z,17.60
2018-10-03T14:24:48.376Z,17.71
2018-10-03T14:27:23.398Z,17.81
2018-10-03T14:29:52.189Z,17.83
2018-10-03T14:32:20.996Z,17.88
2018-10-03T14:34:49.721Z,17.93
2018-10-03T14:37:18.529Z,18.13
2018-10-03T14:39:47.701Z,18.41
2018-10-03T14:42:17.533Z,18.61
2018-10-03T14:44:46.479Z,18.82
2018-10-03T14:47:15.274Z,19.02
2018-10-03T14:49:45.047Z,19.37
2018-10-03T14:52:13.781Z,19.58
2018-10-03T14:54:42.349Z,19.71
2018-10-03T14:57:11.192Z,19.71
2018-10-03T14:59:39.932Z,19.27
2018-10-03T15:02:08.770Z,18.90
2018-10-03T15:04:37.477Z,18.62
2018-10-03T15:07:07.102Z,18.37
2018-10-03T15:09:36.174Z,18.17
2018-10-03T15:12:04.946Z,18.00
2018-10-03T15:14:33.544Z,17.85
2018-10-03T15:17:02.056Z,17.73
2018-10-03T15:19:30.582Z,17.61
2018-10-03T15:21:59.975Z,17.58
2018-10-03T15:24:28.679Z,17.57
2018-10-03T15:26:57.434Z,17.55
2018-10-03T15:29:26.077Z,17.53
2018-10-03T15:31:55.257Z,17.45
2018-10-03T15:34:24.269Z,17.35
2018-10-03T15:36:52.992Z,17.31
2018-10-03T15:39:21.838Z,17.31
2018-10-03T15:41:50.509Z,17.28
2018-10-03T15:44:19.191Z,17.25
2018-10-03T15:46:47.934Z,17.27
2018-10-03T15:49:16.437Z,17.25
2018-10-03T15:51:44.952Z,17.18
2018-10-03T15:54:13.642Z,17.16
2018-10-03T15:56:42.498Z,17.09
2018-10-03T15:59:11.606Z,17.08
2018-10-03T16:01:40.580Z,17.11
2018-10-03T16:04:09.866Z,17.15
2018-10-03T16:06:38.395Z,17.15
2018-10-03T16:09:08.202Z,17.13
2018-10-03T16:11:37.189Z,17.05
2018-10-03T16:14:05.764Z,16.99
2018-10-03T16:16:34.584Z,16.92
2018-10-03T16:19:03.988Z,16.88
2018-10-03T16:21:35.422Z,16.81
2018-10-03T16:24:04.308Z,16.81
2018-10-03T16:26:32.979Z,16.80
2018-10-03T16:29:01.805Z,16.69
2018-10-03T16:31:30.929Z,16.63
2018-10-03T16:34:00.477Z,16.56
2018-10-03T16:36:29.283Z,16.51
2018-10-03T16:38:58.014Z,16.50
2018-10-03T16:41:26.634Z,16.48
2018-10-03T16:43:55.262Z,16.47
2018-10-03T16:46:23.940Z,16.48
2018-10-03T16:48:52.815Z,16.43
2018-10-03T16:51:21.506Z,16.38
2018-10-03T16:53:50.749Z,16.31
2018-10-03T16:56:19.665Z,16.29
2018-10-03T16:58:48.388Z,16.27
2018-10-03T17:01:17.020Z,16.23
2018-10-03T17:03:45.532Z,16.23
2018-10-03T17:06:14.314Z,16.20
2018-10-03T17:08:46.017Z,16.16
2018-10-03T17:11:14.895Z,16.12
2018-10-03T17:13:54.528Z,16.09
2018-10-03T17:16:23.492Z,16.05
2018-10-03T17:18:52.270Z,16.03
2018-10-03T17:21:21.186Z,15.99
2018-10-03T17:23:50.124Z,15.96
2018-10-03T17:26:18.858Z,15.93
2018-10-03T17:28:48.248Z,15.91
2018-10-03T17:31:16.774Z,15.88
2018-10-03T17:33:45.781Z,15.86
2018-10-03T17:36:14.418Z,15.79
2018-10-03T17:38:43.611Z,15.76
2018-10-03T17:41:12.536Z,15.73
2018-10-03T17:43:41.214Z,15.69
2018-10-03T17:46:09.925Z,15.66
2018-10-03T17:48:38.846Z,15.62
2018-10-03T17:51:07.789Z,15.59
2018-10-03T17:53:37.014Z,15.52
2018-10-03T17:56:05.613Z,15.47
2018-10-03T17:58:34.223Z,15.41
2018-10-03T18:01:02.716Z,15.38
2018-10-03T18:03:31.765Z,15.35
2018-10-03T18:06:03.402Z,15.32
2018-10-03T18:08:32.069Z,15.28
2018-10-03T18:11:00.971Z,15.24
2018-10-03T18:13:29.969Z,15.20
2018-10-03T18:15:58.636Z,15.15
2018-10-03T18:18:27.662Z,15.13
2018-10-03T18:20:56.253Z,15.08
2018-10-03T18:23:25.165Z,15.06
2018-10-03T18:25:53.990Z,15.01
2018-10-03T18:28:22.735Z,14.98
2018-10-03T18:30:51.963Z,14.95
2018-10-03T18:33:20.842Z,14.89
2018-10-03T18:35:49.837Z,14.86
2018-10-03T18:38:18.986Z,14.82
2018-10-03T18:40:48.259Z,14.79
2018-10-03T18:43:17.711Z,14.76
2018-10-03T18:45:47.596Z,14.74
2018-10-03T18:48:17.439Z,14.68
2018-10-03T18:50:46.958Z,14.67
2018-10-03T18:53:16.455Z,14.64
2018-10-03T18:55:45.760Z,14.60
2018-10-03T18:58:15.123Z,14.58
2018-10-03T19:00:45.064Z,14.52
2018-10-03T19:03:14.687Z,14.50
2018-10-03T19:05:44.031Z,14.47
2018-10-03T19:08:14.867Z,14.44
2018-10-03T19:10:44.202Z,14.42
2018-10-03T19:13:13.868Z,14.38
2018-10-03T19:15:43.222Z,14.36
2018-10-03T19:18:13.113Z,14.32
2018-10-03T19:20:42.455Z,14.30
2018-10-03T19:23:11.463Z,14.27
2018-10-03T19:25:40.912Z,14.22
2018-10-03T19:28:12.013Z,14.20
2018-10-03T19:30:41.692Z,14.15
2018-10-03T19:33:11.786Z,14.13
2018-10-03T19:35:42.045Z,14.11
2018-10-03T19:38:11.238Z,14.07
2018-10-03T19:40:41.119Z,14.04
2018-10-03T19:43:10.221Z,14.01
2018-10-03T19:45:39.342Z,14.00
2018-10-03T19:48:08.591Z,13.99
2018-10-03T19:50:37.152Z,13.95
2018-10-03T19:53:05.778Z,13.93
2018-10-03T19:55:34.921Z,13.91
2018-10-03T19:58:03.935Z,13.88
2018-10-03T20:00:32.782Z,13.86
2018-10-03T20:03:07.290Z,13.84
2018-10-03T20:05:35.887Z,13.84
2018-10-03T20:08:04.542Z,13.82
2018-10-03T20:10:33.503Z,13.81
2018-10-03T20:13:02.511Z,13.78
2018-10-03T20:15:31.146Z,13.75
2018-10-03T20:18:01.385Z,13.73
2018-10-03T20:20:30.047Z,13.69
2018-10-03T20:22:58.895Z,13.69
2018-10-03T20:25:27.650Z,13.67
2018-10-03T20:27:56.234Z,13.65
2018-10-03T20:30:24.852Z,13.61
2018-10-03T20:32:54.037Z,13.58
2018-10-03T20:35:23.439Z,13.55
2018-10-03T20:37:52.468Z,13.52
2018-10-03T20:40:21.174Z,13.47
2018-10-03T20:42:49.909Z,13.46
2018-10-03T20:45:18.598Z,13.43
2018-10-03T20:47:47.321Z,13.42
2018-10-03T20:50:17.721Z,13.38
2018-10-03T20:52:46.449Z,13.36
2018-10-03T20:55:14.978Z,13.38
2018-10-03T20:57:43.840Z,13.37
2018-10-03T21:00:12.383Z,13.36
2018-10-03T21:02:41.609Z,13.33
2018-10-03T21:05:10.127Z,13.31
2018-10-03T21:07:39.058Z,13.32
2018-10-03T21:10:08.266Z,13.30
2018-10-03T21:12:37.329Z,13.31
2018-10-03T21:15:07.345Z,13.28
2018-10-03T21:17:36.029Z,13.26
2018-10-03T21:20:05.647Z,13.23
2018-10-03T21:22:34.281Z,13.24
2018-10-03T21:25:02.997Z,13.23
2018-10-03T21:27:31.526Z,13.22
2018-10-03T21:30:00.137Z,13.20
2018-10-03T21:32:28.976Z,13.16
2018-10-03T21:34:57.410Z,13.14
2018-10-03T21:37:26.115Z,13.12
2018-10-03T21:39:54.688Z,13.09
2018-10-03T21:42:23.348Z,13.07
2018-10-03T21:44:51.893Z,13.06
2018-10-03T21:47:20.784Z,13.06
2018-10-03T21:49:49.473Z,13.04
2018-10-03T21:52:18.247Z,13.02
2018-10-03T21:54:46.835Z,13.03
2018-10-03T21:57:15.454Z,13.01
2018-10-03T21:59:44.273Z,13.01
2018-10-03T22:02:13.392Z,12.98
2018-10-03T22:04:41.863Z,12.96
2018-10-03T22:07:10.313Z,12.93
2018-10-03T22:09:38.954Z,12.92
2018-10-03T22:12:07.616Z,12.89
2018-10-03T22:14:37.085Z,12.88
2018-10-03T22:17:09.738Z,12.85
2018-10-03T22:19:38.651Z,12.84
2018-10-03T22:22:07.222Z,12.82
2018-10-03T22:24:35.821Z,12.78
2018-10-03T22:27:04.377Z,12.77
2018-10-03T22:29:33.310Z,12.76
2018-10-03T22:32:01.886Z,12.75
2018-10-03T22:34:31.299Z,12.73
2018-10-03T22:36:59.972Z,12.70
2018-10-03T22:39:28.562Z,12.67
2018-10-03T22:41:57.071Z,12.65
2018-10-03T22:44:25.945Z,12.65
2018-10-03T22:46:54.958Z,12.64
2018-10-03T22:49:23.523Z,12.63
2018-10-03T22:51:52.392Z,12.59
2018-10-03T22:54:21.529Z,12.58
2018-10-03T22:56:50.738Z,12.56
2018-10-03T22:59:19.293Z,12.52
2018-10-03T23:01:47.792Z,12.49
2018-10-03T23:04:16.233Z,12.48
2018-10-03T23:06:45.950Z,12.45
2018-10-03T23:09:14.452Z,12.43
2018-10-03T23:11:43.121Z,12.41
2018-10-03T23:14:11.559Z,12.38
2018-10-03T23:16:40.172Z,12.35
2018-10-03T23:19:08.732Z,12.32
2018-10-03T23:21:37.556Z,12.31
2018-10-03T23:24:06.104Z,12.31
2018-10-03T23:26:34.620Z,12.29
2018-10-03T23:29:03.475Z,12.27
2018-10-03T23:31:32.199Z,12.25
2018-10-03T23:34:01.037Z,12.28
2018-10-03T23:36:29.817Z,12.25
2018-10-03T23:38:58.460Z,12.25
2018-10-03T23:41:28.442Z,12.28
2018-10-03T23:43:57.092Z,12.31
2018-10-03T23:46:25.950Z,12.32
2018-10-03T23:48:54.458Z,12.29
2018-10-03T23:51:23.113Z,12.34
2018-10-03T23:53:51.659Z,12.35
2018-10-03T23:56:20.401Z,12.34
2018-10-03T23:58:48.925Z,12.35
